Time;durP1;ratioP1;P1;durP2;ratioP2;P2;SDS_P1;SDS_P2;PMS_P1;PMS_P2;Temp;Humidity;BMP_temperature;BMP_pressure;BME280_temperature;BME280_humidity;BME280_pressure;Samples;Min_cycle;Max_cycle;Signal;HPM_P1;HPM_P2
2021/08/25 00:02:24;;;;;;;24.35;12.75;;;;;;;22.23;58.68;100399.70;126258;1099;104178;-78
2021/08/25 00:04:55;;;;;;;23.87;12.97;;;;;;;22.19;59.08;100391.75;126347;1099;104169;-80
2021/08/25 00:07:27;;;;;;;23.53;12.60;;;;;;;22.14;58.58;100405.17;126368;1099;104297;-79
2021/08/25 00:09:57;;;;;;;26.43;13.13;;;;;;;22.10;58.85;100403.47;126287;1099;104304;-78
2021/08/25 00:12:30;;;;;;;23.70;12.80;;;;;;;22.05;59.26;100399.98;126288;1099;104197;-78
2021/08/25 00:15:00;;;;;;;24.73;13.80;;;;;;;22.04;59.27;100400.88;126365;1099;104150;-79
2021/08/25 00:17:31;;;;;;;24.43;13.10;;;;;;;22.09;59.35;100401.69;126349;1099;104143;-78
2021/08/25 00:20:01;;;;;;;29.67;13.30;;;;;;;22.11;59.85;100409.68;126353;1099;104317;-79
2021/08/25 00:22:32;;;;;;;27.47;13.87;;;;;;;22.06;59.45;100407.07;126288;1098;104213;-79
2021/08/25 00:25:03;;;;;;;26.53;13.37;;;;;;;22.00;60.12;100401.80;126349;1099;104239;-78
2021/08/25 00:27:33;;;;;;;27.27;14.83;;;;;;;21.99;59.45;100405.40;126294;1099;104197;-78
2021/08/25 00:30:04;;;;;;;25.60;13.63;;;;;;;21.94;60.00;100404.55;126362;1097;104289;-79
2021/08/25 00:32:34;;;;;;;26.07;13.17;;;;;;;21.89;59.96;100396.59;126297;1099;104143;-77
2021/08/25 00:35:05;;;;;;;25.47;13.13;;;;;;;21.86;60.42;100404.64;126290;1099;104142;-78
2021/08/25 00:37:36;;;;;;;24.83;12.63;;;;;;;21.83;60.68;100399.34;126337;1099;104188;-78
2021/08/25 00:40:08;;;;;;;24.50;12.83;;;;;;;21.81;60.41;100396.69;126371;1098;104159;-80
2021/08/25 00:42:39;;;;;;;27.20;13.20;;;;;;;21.84;61.21;100385.97;126386;1099;104220;-78
2021/08/25 00:45:11;;;;;;;25.17;13.30;;;;;;;21.84;61.37;100396.66;126318;1099;118862;-79
2021/08/25 00:47:43;;;;;;;27.47;13.37;;;;;;;21.79;61.27;100392.29;126299;1099;104181;-78
2021/08/25 00:50:15;;;;;;;27.33;13.83;;;;;;;21.75;61.01;100396.77;126319;1099;104203;-78
2021/08/25 00:52:45;;;;;;;26.70;13.70;;;;;;;21.72;61.37;100397.70;126324;1099;104159;-78
2021/08/25 00:55:17;;;;;;;28.27;13.73;;;;;;;21.72;60.92;100402.14;126248;1099;104149;-80
2021/08/25 00:57:48;;;;;;;25.23;13.23;;;;;;;21.75;62.13;100390.55;126331;1099;104137;-79
2021/08/25 01:00:20;;;;;;;23.87;13.17;;;;;;;21.80;61.86;100386.93;126298;1099;104303;-79
2021/08/25 01:02:58;;;;;;;25.23;12.97;;;;;;;21.77;62.05;100384.30;126319;1099;104166;-78
2021/08/25 01:05:30;;;;;;;25.93;12.50;;;;;;;21.72;62.30;100389.69;126309;1099;104140;-79
2021/08/25 01:08:05;;;;;;;23.60;12.73;;;;;;;21.69;61.42;100391.49;126371;1099;104142;-79
2021/08/25 01:10:36;;;;;;;23.10;12.80;;;;;;;21.66;62.29;100394.20;126344;1099;104194;-78
2021/08/25 01:13:10;;;;;;;23.13;12.90;;;;;;;21.63;62.37;100388.89;126335;1099;104149;-79
2021/08/25 01:15:43;;;;;;;21.93;12.23;;;;;;;21.59;61.99;100388.05;126298;1099;105464;-78
2021/08/25 01:18:17;;;;;;;24.00;12.15;;;;;;;21.54;62.84;100377.43;126344;1099;104188;-79
2021/08/25 01:20:46;;;;;;;;;;;;;;;21.54;61.24;100382.77;126354;1099;104235;-79
2021/08/25 01:23:17;;;;;;;24.50;12.07;;;;;;;21.54;62.30;100377.43;126304;1099;104142;-79
2021/08/25 01:25:49;;;;;;;25.47;12.27;;;;;;;21.60;62.04;100379.16;126238;1099;104300;-78
2021/08/25 01:28:26;;;;;;;23.80;12.07;;;;;;;21.60;62.50;100386.26;126345;1099;104245;-79
2021/08/25 01:30:58;;;;;;;20.53;11.43;;;;;;;21.56;62.66;100384.55;126258;1098;104246;-79
2021/08/25 01:33:31;;;;;;;23.43;11.90;;;;;;;21.53;63.54;100386.36;126371;1099;104223;-79
2021/08/25 01:36:01;;;;;;;23.40;11.73;;;;;;;21.52;62.76;100383.70;126240;1099;104169;-78
2021/08/25 01:38:39;;;;;;;20.77;11.87;;;;;;;21.53;63.76;100377.45;126297;1099;104150;-79
2021/08/25 01:41:10;;;;;;;22.17;11.57;;;;;;;21.59;63.19;100389.85;126339;1099;104159;-78
2021/08/25 01:43:40;;;;;;;22.65;11.60;;;;;;;21.60;63.82;100386.26;126328;1097;104156;-77
2021/08/25 01:46:19;;;;;;;24.07;11.80;;;;;;;21.61;64.02;100383.57;126314;1099;104233;-79
2021/08/25 01:48:50;;;;;;;23.13;11.90;;;;;;;21.60;64.07;100380.92;126321;1099;104153;-78
2021/08/25 01:51:20;;;;;;;20.50;11.47;;;;;;;21.60;63.61;100384.50;126230;1099;104290;-78
2021/08/25 01:53:51;;;;;;;22.07;11.63;;;;;;;21.60;63.26;100388.92;126355;1099;104153;-79
2021/08/25 01:56:22;;;;;;;21.10;11.67;;;;;;;21.53;63.53;100378.35;126260;1099;104242;-79
2021/08/25 01:58:52;;;;;;;22.23;11.53;;;;;;;21.52;64.41;100381.91;126321;1099;104182;-79
2021/08/25 02:01:23;;;;;;;23.60;11.27;;;;;;;21.50;64.01;100380.15;126361;1099;104193;-79
2021/08/25 02:03:53;;;;;;;22.67;11.57;;;;;;;21.48;64.20;100380.13;126299;1098;104188;-78
2021/08/25 02:06:24;;;;;;;23.60;11.23;;;;;;;21.44;64.51;100383.76;126275;1099;104172;-79
2021/08/25 02:08:54;;;;;;;21.80;11.53;;;;;;;21.42;63.87;100376.66;126296;1099;104220;-77
2021/08/25 02:11:25;;;;;;;23.43;12.17;;;;;;;21.36;64.19;100373.16;126344;1099;104163;-79
2021/08/25 02:13:56;;;;;;;24.00;11.90;;;;;;;21.33;64.24;100374.95;126315;1098;104172;-78
2021/08/25 02:16:27;;;;;;;25.53;12.03;;;;;;;21.29;64.50;100371.45;126254;1099;104316;-79
2021/08/25 02:18:58;;;;;;;23.60;12.00;;;;;;;21.24;64.44;100373.29;126367;1099;104188;-79
2021/08/25 02:21:29;;;;;;;22.33;11.23;;;;;;;21.23;65.03;100367.97;126323;1099;104213;-79
2021/08/25 02:24:00;;;;;;;20.30;11.00;;;;;;;21.24;65.26;100373.29;126329;1099;104222;-78
2021/08/25 02:26:31;;;;;;;21.53;11.63;;;;;;;21.22;65.50;100379.53;126305;1099;104195;-78
2021/08/25 02:29:01;;;;;;;21.43;10.93;;;;;;;21.20;64.69;100387.55;126300;1099;104147;-78
2021/08/25 02:31:32;;;;;;;20.40;11.00;;;;;;;21.16;65.69;100384.03;126315;1099;104222;-78
2021/08/25 02:34:03;;;;;;;22.33;11.70;;;;;;;21.12;66.02;100384.08;126341;1099;104592;-78
2021/08/25 02:36:33;;;;;;;22.67;12.00;;;;;;;21.09;65.63;100379.64;126305;1098;104160;-77
2021/08/25 02:39:05;;;;;;;24.63;12.20;;;;;;;21.05;65.11;100377.02;126341;1097;104268;-77
2021/08/25 02:41:35;;;;;;;23.63;11.93;;;;;;;21.02;65.79;100385.96;126327;1099;104214;-79
2021/08/25 02:44:07;;;;;;;24.50;11.40;;;;;;;21.03;66.12;100379.70;126321;1099;104152;-79
2021/08/25 02:46:38;;;;;;;22.33;11.60;;;;;;;21.10;66.84;100385.86;126216;1099;104245;-79
2021/08/25 02:49:09;;;;;;;23.80;11.00;;;;;;;21.13;65.64;100384.06;126324;1099;104155;-79
2021/08/25 02:51:40;;;;;;;22.87;11.53;;;;;;;21.16;65.47;100392.04;126349;1099;104596;-78
2021/08/25 02:54:11;;;;;;;23.10;12.07;;;;;;;21.16;66.02;100397.38;126341;1099;104140;-79
2021/08/25 02:56:42;;;;;;;21.63;11.50;;;;;;;21.13;65.62;100400.08;126272;1099;104142;-79
2021/08/25 02:59:14;;;;;;;24.90;12.53;;;;;;;21.07;65.76;100388.58;126348;1099;104159;-78
2021/08/25 03:01:44;;;;;;;22.70;12.07;;;;;;;20.97;66.95;100391.33;126388;1099;104281;-78
2021/08/25 03:04:15;;;;;;;23.00;12.03;;;;;;;20.90;66.53;100407.40;126343;1099;104274;-77
2021/08/25 03:06:46;;;;;;;23.13;11.73;;;;;;;20.81;66.66;100409.22;126298;1099;104415;-78
2021/08/25 03:09:17;;;;;;;23.40;12.57;;;;;;;20.74;67.29;100404.85;126363;1099;104181;-78
2021/08/25 03:11:48;;;;;;;21.87;12.07;;;;;;;20.70;66.73;100403.09;126361;1099;104156;-78
2021/08/25 03:14:19;;;;;;;25.03;11.93;;;;;;;20.65;66.70;100400.46;126351;1099;104149;-80
2021/08/25 03:16:50;;;;;;;22.77;12.17;;;;;;;20.67;66.99;100407.58;126290;1099;104252;-79
2021/08/25 03:20:27;;;;;;;20.90;11.87;;;;;;;20.67;67.46;100392.45;125177;1102;104270;-78
2021/08/25 03:22:58;;;;;;;20.77;11.23;;;;;;;20.68;66.79;100391.56;125250;1102;104149;-79
2021/08/25 03:25:29;;;;;;;21.40;11.75;;;;;;;20.70;67.70;100387.09;124958;1102;104676;-80
2021/08/25 03:27:59;;;;;;;23.27;11.90;;;;;;;20.69;67.60;100385.31;125198;1102;104184;-78
2021/08/25 03:30:30;;;;;;;25.67;12.13;;;;;;;20.69;67.12;100379.98;125083;1102;104139;-78
2021/08/25 03:33:04;;;;;;;21.73;11.20;;;;;;;20.74;68.17;100390.61;124899;1102;104159;-78
2021/08/25 03:35:35;;;;;;;24.90;11.80;;;;;;;20.75;68.40;100371.94;125037;1102;104179;-78
2021/08/25 03:38:06;;;;;;;20.73;11.60;;;;;;;20.79;67.98;100376.36;125138;1102;104188;-78
2021/08/25 03:40:39;;;;;;;24.53;11.80;;;;;;;20.85;67.94;100377.20;125133;1102;104271;-79
2021/08/25 03:43:12;;;;;;;25.93;12.47;;;;;;;20.88;67.70;100379.84;125105;1102;104143;-78
2021/08/25 03:45:50;;;;;;;27.87;12.67;;;;;;;20.90;67.87;100388.73;125063;1102;104182;-79
2021/08/25 03:48:24;;;;;;;25.43;11.97;;;;;;;20.89;68.18;100390.49;125047;1102;104676;-79
2021/08/25 03:50:54;;;;;;;24.90;12.77;;;;;;;20.87;68.57;100388.76;124991;1102;104253;-78
2021/08/25 03:53:29;;;;;;;27.70;13.70;;;;;;;20.88;68.13;100386.08;125178;1102;104306;-77
2021/08/25 03:56:01;;;;;;;24.90;12.20;;;;;;;20.93;67.92;100386.04;125090;1102;104136;-78
2021/08/25 03:58:33;;;;;;;24.03;12.03;;;;;;;20.97;67.80;100379.76;125016;1102;104150;-77
2021/08/25 04:01:05;;;;;;;24.50;12.60;;;;;;;21.02;67.50;100388.63;125099;1101;104248;-78
2021/08/25 04:03:35;;;;;;;23.77;12.33;;;;;;;21.01;68.25;100381.51;125182;1102;104789;-78
2021/08/25 04:06:06;;;;;;;23.60;12.20;;;;;;;21.04;67.84;100375.28;124896;1102;104171;-77
2021/08/25 04:08:36;;;;;;;24.73;12.03;;;;;;;21.08;68.47;100375.20;125147;1102;104152;-79
2021/08/25 04:11:07;;;;;;;24.33;12.23;;;;;;;21.09;68.53;100371.64;125152;1102;104242;-77
2021/08/25 04:13:38;;;;;;;22.10;12.00;;;;;;;21.12;68.54;100368.95;125138;1102;104254;-78
2021/08/25 04:16:08;;;;;;;24.47;11.77;;;;;;;21.15;68.72;100368.92;125033;1102;104200;-76
2021/08/25 04:18:39;;;;;;;26.30;12.40;;;;;;;21.20;68.20;100360.87;125194;1102;104204;-78
2021/08/25 04:21:09;;;;;;;22.23;11.87;;;;;;;21.22;67.87;100363.52;125118;1102;104142;-77
2021/08/25 04:23:40;;;;;;;20.40;11.30;;;;;;;21.22;67.96;100356.39;125210;1102;104163;-77
2021/08/25 04:26:11;;;;;;;23.60;11.87;;;;;;;21.24;68.66;100367.05;125206;1102;104192;-78
2021/08/25 04:28:42;;;;;;;22.63;12.10;;;;;;;21.27;68.11;100372.35;125193;1102;104315;-78
2021/08/25 04:31:12;;;;;;;23.40;11.90;;;;;;;21.29;68.44;100376.78;125167;1102;104254;-78
2021/08/25 04:33:43;;;;;;;23.30;12.20;;;;;;;21.33;69.06;100367.86;124948;1102;104156;-78
2021/08/25 04:36:13;;;;;;;23.23;11.10;;;;;;;21.39;68.67;100369.55;125086;1102;104251;-76
2021/08/25 04:38:44;;;;;;;21.13;10.90;;;;;;;21.39;67.82;100366.02;125109;1102;104191;-76
2021/08/25 04:41:14;;;;;;;20.07;10.90;;;;;;;21.37;68.23;100364.23;124982;1102;104140;-76
2021/08/25 04:43:45;;;;;;;25.60;12.13;;;;;;;21.39;68.23;100376.69;125153;1102;104172;-77
2021/08/25 04:46:19;;;;;;;21.87;11.37;;;;;;;21.34;68.80;100379.41;125127;1102;104329;-76
2021/08/25 04:48:51;;;;;;;23.77;12.33;;;;;;;21.29;69.06;100381.25;125177;1102;104146;-77
2021/08/25 04:51:22;;;;;;;26.87;12.40;;;;;;;21.24;68.28;100381.30;125098;1102;104252;-77
2021/08/25 04:53:52;;;;;;;25.97;11.90;;;;;;;21.26;68.37;100383.95;125126;1102;104200;-77
2021/08/25 04:56:23;;;;;;;25.40;11.57;;;;;;;21.24;68.53;100378.63;124987;1102;104229;-77
2021/08/25 04:58:53;;;;;;;24.60;11.17;;;;;;;21.24;68.31;100372.38;125102;1102;104149;-75
2021/08/25 05:01:24;;;;;;;20.43;10.13;;;;;;;21.25;69.12;100385.71;125157;1102;104316;-76
2021/08/25 05:03:54;;;;;;;23.27;11.27;;;;;;;21.23;68.75;100386.64;125210;1102;104169;-76
2021/08/25 05:06:25;;;;;;;22.03;11.13;;;;;;;21.21;68.71;100367.08;124928;1102;104178;-77
2021/08/25 05:08:58;;;;;;;29.73;12.00;;;;;;;21.21;68.84;100372.41;125182;1102;104143;-77
2021/08/25 05:11:29;;;;;;;25.48;11.65;;;;;;;21.26;68.66;100374.15;125107;1102;104162;-77
2021/08/25 05:14:01;;;;;;;;;;;;;;;21.26;69.20;100376.81;125093;1102;104185;-76
2021/08/25 05:16:31;;;;;;;27.50;12.27;;;;;;;21.22;68.70;100374.19;125173;1102;104140;-75
2021/08/25 05:19:04;;;;;;;31.07;12.90;;;;;;;21.21;69.59;100372.41;125173;1102;104136;-77
2021/08/25 05:21:36;;;;;;;27.47;13.13;;;;;;;21.23;69.32;100386.64;125241;1102;104771;-76
2021/08/25 05:24:07;;;;;;;27.67;11.93;;;;;;;21.22;69.88;100390.20;125117;1102;104314;-76
2021/08/25 05:26:38;;;;;;;25.23;12.50;;;;;;;21.22;69.85;100398.20;125189;1102;104248;-75
2021/08/25 05:29:09;;;;;;;26.20;12.37;;;;;;;21.20;69.25;100395.55;125215;1102;104297;-77
2021/08/25 05:31:40;;;;;;;27.87;12.03;;;;;;;21.18;69.04;100392.03;125240;1102;104409;-77
2021/08/25 05:34:12;;;;;;;26.07;13.20;;;;;;;21.23;69.64;100386.64;125246;1102;118877;-76
2021/08/25 05:36:43;;;;;;;23.30;11.17;;;;;;;21.28;70.22;100382.14;125181;1102;104440;-75
2021/08/25 05:39:15;;;;;;;23.77;11.00;;;;;;;21.26;70.00;100389.28;125219;1103;104980;-75
2021/08/25 05:41:47;;;;;;;29.13;12.63;;;;;;;21.21;69.81;100405.34;124894;1102;104193;-77
2021/08/25 05:44:18;;;;;;;26.93;13.57;;;;;;;21.15;70.12;100402.73;125153;1102;104338;-74
2021/08/25 05:46:49;;;;;;;33.47;14.30;;;;;;;21.08;70.06;100409.87;125096;1102;104232;-73
2021/08/25 05:49:19;;;;;;;31.47;13.27;;;;;;;20.93;70.85;100410.91;125126;1102;104178;-73
2021/08/25 05:51:50;;;;;;;26.73;14.20;;;;;;;20.80;71.59;100419.90;125206;1102;104291;-73
2021/08/25 05:54:21;;;;;;;33.43;14.40;;;;;;;20.70;71.71;100421.75;125142;1101;104210;-74
2021/08/25 05:56:51;;;;;;;32.50;14.00;;;;;;;20.58;72.04;100420.02;125242;1099;104245;-74
2021/08/25 05:59:22;;;;;;;29.33;13.67;;;;;;;20.52;72.23;100419.18;125219;1099;104614;-75
2021/08/25 06:01:54;;;;;;;28.77;12.93;;;;;;;20.42;71.91;100419.23;125121;1099;104162;-74
2021/08/25 06:04:26;;;;;;;31.40;15.00;;;;;;;20.39;71.93;100410.38;125135;1099;104147;-72
2021/08/25 06:06:57;;;;;;;25.50;13.50;;;;;;;20.39;72.36;100418.38;125223;1099;104730;-73
2021/08/25 06:09:27;;;;;;;32.97;13.70;;;;;;;20.39;72.04;100424.58;125207;1099;104605;-73
2021/08/25 06:11:58;;;;;;;25.17;12.13;;;;;;;20.39;73.08;100421.92;125261;1102;104886;-73
2021/08/25 06:14:29;;;;;;;29.60;12.77;;;;;;;20.40;72.50;100431.69;125195;1099;104344;-74
2021/08/25 06:17:00;;;;;;;25.83;13.17;;;;;;;20.41;73.80;100430.81;125189;1099;104290;-73
2021/08/25 06:19:30;;;;;;;22.03;12.00;;;;;;;20.40;73.94;100434.36;125124;1099;104156;-74
2021/08/25 06:22:01;;;;;;;29.45;13.90;;;;;;;20.37;74.24;100445.03;125214;1099;104143;-72
2021/08/25 06:24:32;;;;;;;24.37;11.50;;;;;;;20.33;74.35;100437.06;125078;1102;104268;-73
2021/08/25 06:27:04;;;;;;;22.57;12.43;;;;;;;20.25;73.79;100437.98;125064;1099;104342;-74
2021/08/25 06:29:37;;;;;;;22.27;12.13;;;;;;;20.19;74.46;100440.67;125208;1099;104153;-74
2021/08/25 06:32:08;;;;;;;21.20;11.90;;;;;;;20.15;74.78;100438.94;125171;1099;104248;-75
2021/08/25 06:34:39;;;;;;;21.93;12.13;;;;;;;20.11;74.63;100450.48;125107;1099;104618;-74
2021/08/25 06:37:11;;;;;;;21.77;12.73;;;;;;;20.08;74.20;100451.38;125121;1102;104143;-75
2021/08/25 06:39:42;;;;;;;24.23;13.70;;;;;;;20.05;75.52;100445.19;125117;1099;104217;-75
2021/08/25 06:42:12;;;;;;;21.47;13.40;;;;;;;20.02;74.42;100459.39;125134;1102;104146;-72
2021/08/25 06:44:46;;;;;;;23.92;13.25;;;;;;;20.01;74.56;100464.75;125112;1102;105376;-72
2021/08/25 06:47:18;;;;;;;24.87;13.63;;;;;;;20.03;75.67;100463.83;125193;1099;104146;-73
2021/08/25 06:49:48;;;;;;;24.97;13.37;;;;;;;20.07;75.10;100456.70;125098;1103;104736;-74
2021/08/25 06:52:21;;;;;;;20.83;12.63;;;;;;;20.12;74.98;100452.27;125158;1099;104214;-74
2021/08/25 06:54:52;;;;;;;20.50;13.23;;;;;;;20.24;75.44;100460.20;125141;1099;104274;-74
2021/08/25 06:57:26;;;;;;;25.70;14.17;;;;;;;20.38;75.82;100465.47;125162;1099;104325;-74
2021/08/25 06:59:57;;;;;;;24.43;14.10;;;;;;;20.50;76.00;100468.95;125180;1099;104130;-74
2021/08/25 07:02:28;;;;;;;21.77;13.27;;;;;;;20.58;75.31;100478.66;125186;1099;104216;-75
2021/08/25 07:04:59;;;;;;;23.37;13.70;;;;;;;20.64;76.81;100475.08;124966;1102;104338;-75
2021/08/25 07:07:30;;;;;;;22.67;12.93;;;;;;;20.63;76.05;100481.30;125209;1099;104209;-74
2021/08/25 07:10:01;;;;;;;24.33;14.13;;;;;;;20.63;76.07;100466.21;125174;1099;104242;-75
2021/08/25 07:12:32;;;;;;;28.30;15.60;;;;;;;20.70;76.30;100471.53;125235;1099;104169;-75
2021/08/25 07:15:06;;;;;;;23.97;14.37;;;;;;;20.73;76.38;100472.39;125178;1099;105192;-75
2021/08/25 07:17:39;;;;;;;24.13;13.27;;;;;;;20.79;76.50;100471.48;125218;1099;104272;-75
2021/08/25 07:20:12;;;;;;;;;;;;;;;20.85;75.32;100473.20;125117;1099;104230;-75
2021/08/25 07:22:49;;;;;;;22.20;13.20;;;;;;;20.95;75.75;100472.25;125135;1099;104146;-75
2021/08/25 07:25:21;;;;;;;22.47;12.87;;;;;;;21.09;75.83;100469.48;125151;1099;104637;-75
2021/08/25 07:27:52;;;;;;;23.27;13.63;;;;;;;21.21;76.50;100464.04;125179;1102;104185;-75
2021/08/25 07:30:25;;;;;;;30.10;15.30;;;;;;;21.30;76.59;100463.96;125142;1099;104630;-75
2021/08/25 07:32:57;;;;;;;27.60;14.57;;;;;;;21.34;75.67;100471.02;125140;1099;104329;-74
2021/08/25 07:35:30;;;;;;;23.77;14.23;;;;;;;21.37;76.37;100475.45;125082;1102;104674;-75
2021/08/25 07:38:01;;;;;;;22.40;12.60;;;;;;;21.33;76.32;100468.36;125102;1099;104194;-76
2021/08/25 07:40:32;;;;;;;22.70;13.07;;;;;;;21.28;76.29;100475.53;125094;1102;104258;-76
2021/08/25 07:43:07;;;;;;;20.83;11.87;;;;;;;21.24;76.17;100480.02;125105;1102;104284;-76
2021/08/25 07:45:40;;;;;;;19.93;11.63;;;;;;;21.17;75.91;100483.63;125124;1102;104274;-74
2021/08/25 07:48:14;;;;;;;19.07;10.72;;;;;;;21.08;75.90;100483.70;125117;1099;104182;-76
2021/08/25 07:50:49;;;;;;;18.83;10.57;;;;;;;21.08;75.57;100492.58;125177;1102;104197;-74
2021/08/25 07:53:21;;;;;;;16.90;10.23;;;;;;;21.09;75.57;100483.69;125133;1102;104168;-75
2021/08/25 07:55:54;;;;;;;19.30;11.50;;;;;;;21.16;76.15;100484.52;125101;1099;105652;-75
2021/08/25 07:58:28;;;;;;;22.30;11.70;;;;;;;21.24;76.23;100479.12;125103;1099;104165;-76
2021/08/25 08:01:01;;;;;;;22.03;11.27;;;;;;;21.35;76.45;100477.27;125190;1102;104153;-75
2021/08/25 08:03:38;;;;;;;18.00;10.67;;;;;;;21.50;76.01;100481.59;125171;1099;104290;-74
2021/08/25 08:06:10;;;;;;;21.37;10.97;;;;;;;21.67;76.17;100484.09;125171;1102;104143;-75
2021/08/25 08:08:43;;;;;;;20.77;10.40;;;;;;;21.85;75.35;100470.55;125119;1099;104216;-75
2021/08/25 08:11:17;;;;;;;15.43;9.47;;;;;;;22.07;75.98;100468.50;125216;1099;104277;-75
2021/08/25 08:13:49;;;;;;;15.40;9.10;;;;;;;22.24;74.94;100473.64;125142;1102;104188;-74
2021/08/25 08:16:21;;;;;;;15.10;8.50;;;;;;;22.35;74.66;100467.31;125199;1099;104319;-74
2021/08/25 08:18:59;;;;;;;15.40;8.93;;;;;;;22.50;74.32;100455.51;125212;1099;104335;-75
2021/08/25 08:21:30;;;;;;;16.30;8.90;;;;;;;22.64;74.83;100457.98;125130;1099;104309;-74
2021/08/25 08:24:01;;;;;;;15.10;8.50;;;;;;;22.74;74.06;100455.15;125176;1102;104236;-74
2021/08/25 08:26:33;;;;;;;15.17;8.00;;;;;;;22.80;73.77;100455.05;125116;1102;104683;-75
2021/08/25 08:29:05;;;;;;;14.30;8.20;;;;;;;22.78;73.91;100454.21;125254;1099;104630;-76
2021/08/25 08:31:36;;;;;;;14.27;8.50;;;;;;;22.79;73.74;100452.41;125164;1099;104162;-76
2021/08/25 08:34:07;;;;;;;16.30;8.50;;;;;;;22.84;73.21;100455.02;125136;1102;104178;-74
2021/08/25 08:36:38;;;;;;;14.13;8.07;;;;;;;22.93;73.41;100455.73;125033;1102;104178;-75
2021/08/25 08:39:12;;;;;;;12.37;7.40;;;;;;;22.93;73.62;100462.89;125137;1102;104236;-75
2021/08/25 08:41:44;;;;;;;12.97;7.37;;;;;;;22.93;73.12;100458.41;125197;1099;104152;-75
2021/08/25 08:44:21;;;;;;;16.27;8.13;;;;;;;22.94;73.25;100451.30;125204;1099;104246;-75
2021/08/25 08:46:55;;;;;;;17.10;8.50;;;;;;;22.88;73.15;100440.69;125197;1099;104262;-75
2021/08/25 08:49:27;;;;;;;17.37;8.90;;;;;;;22.86;72.73;100431.78;125116;1102;104168;-76
2021/08/25 08:52:00;;;;;;;15.88;7.92;;;;;;;22.85;72.41;100436.27;125215;1099;104207;-75
2021/08/25 08:54:32;;;;;;;16.93;8.13;;;;;;;22.87;72.75;100437.11;125191;1099;104142;-78
2021/08/25 08:57:05;;;;;;;14.33;7.13;;;;;;;23.07;72.78;100436.78;125144;1102;104262;-76
2021/08/25 08:59:36;;;;;;;14.60;7.47;;;;;;;23.33;72.34;100432.81;125170;1102;104144;-76
2021/08/25 09:02:10;;;;;;;14.97;7.30;;;;;;;23.54;72.40;100426.16;125160;1099;104252;-78
2021/08/25 09:04:46;;;;;;;15.90;7.17;;;;;;;23.71;72.14;100433.00;125188;1099;104143;-76
2021/08/25 09:07:21;;;;;;;18.90;7.60;;;;;;;23.79;72.06;100425.69;125726;1099;104241;-76
2021/08/25 09:10:04;;;;;;;14.00;7.23;;;;;;;23.88;71.60;100427.34;126213;1099;104149;-76
2021/08/25 09:13:02;;;;;;;13.70;6.93;;;;;;;23.89;71.27;100427.31;125271;1099;104272;-77
2021/08/25 09:15:38;;;;;;;15.78;6.97;;;;;;;23.87;70.85;100434.48;126245;1099;104569;-76
2021/08/25 09:18:15;;;;;;;12.80;7.03;;;;;;;23.82;70.51;100434.54;125255;1099;104159;-74
2021/08/25 09:20:50;;;;;;;15.10;6.70;;;;;;;23.75;70.53;100424.88;125080;1099;104165;-74
2021/08/25 09:23:23;;;;;;;12.40;6.40;;;;;;;23.76;70.56;100425.75;125092;1099;104623;-75
2021/08/25 09:25:57;;;;;;;14.03;6.57;;;;;;;23.76;69.96;100423.95;125105;1099;104280;-75
2021/08/25 09:28:34;;;;;;;10.17;6.27;;;;;;;23.77;69.77;100427.53;125148;1102;104160;-75
2021/08/25 09:31:12;;;;;;;10.30;6.47;;;;;;;23.79;69.35;100425.69;125021;1099;104241;-76
2021/08/25 09:33:45;;;;;;;13.87;7.13;;;;;;;23.79;68.75;100415.84;125150;1102;104146;-74
2021/08/25 09:36:20;;;;;;;15.43;6.57;;;;;;;23.93;69.31;100407.56;125175;1102;104481;-75
2021/08/25 09:38:57;;;;;;;12.47;6.57;;;;;;;24.00;68.73;100406.53;125217;1099;108776;-76
2021/08/25 09:41:34;;;;;;;12.90;6.87;;;;;;;24.03;68.63;100408.27;125102;1099;104242;-76
2021/08/25 09:44:17;;;;;;;12.93;6.57;;;;;;;24.14;68.28;100405.36;125083;1099;104168;-77
2021/08/25 09:46:53;;;;;;;11.70;6.53;;;;;;;24.29;68.01;100404.98;125029;1099;104179;-77
2021/08/25 09:49:24;;;;;;;11.37;6.73;;;;;;;24.43;67.08;100401.12;125088;1100;117859;-78
2021/08/25 09:51:57;;;;;;;11.78;6.37;;;;;;;24.55;66.83;100411.57;125037;1099;104187;-75
2021/08/25 09:54:29;;;;;;;14.70;7.53;;;;;;;24.65;66.87;100402.44;125183;1099;104277;-76
2021/08/25 09:57:01;;;;;;;13.93;6.70;;;;;;;24.84;66.99;100386.75;125162;1102;104239;-76
2021/08/25 09:59:33;;;;;;;10.60;6.30;;;;;;;24.94;65.63;100396.31;125108;1102;104602;-76
2021/08/25 10:02:08;;;;;;;15.33;6.53;;;;;;;24.98;65.39;100391.77;125113;1102;104149;-75
2021/08/25 10:04:39;;;;;;;10.37;6.37;;;;;;;24.99;65.38;100396.20;125097;1102;104171;-76
2021/08/25 10:07:14;;;;;;;10.07;6.10;;;;;;;25.08;65.24;100389.73;125166;1102;104223;-77
2021/08/25 10:09:50;;;;;;;12.27;6.30;;;;;;;25.15;64.15;100398.48;125130;1100;109527;-77
2021/08/25 10:12:23;;;;;;;13.07;6.33;;;;;;;25.05;64.31;100400.55;125130;1099;104195;-77
2021/08/25 10:14:58;;;;;;;12.85;6.90;;;;;;;25.01;63.58;100404.22;125237;1102;106084;-78
2021/08/25 10:17:47;;;;;;;13.83;6.20;;;;;;;24.94;63.64;100404.37;125115;1102;104437;-78
2021/08/25 10:20:36;;;;;;;16.43;9.63;;;;;;;24.90;63.21;100400.02;125087;1102;104169;-79
2021/08/25 10:23:12;;;;;;;14.00;6.57;;;;;;;24.90;63.07;100408.07;125155;1102;104492;-77
2021/08/25 10:26:09;;;;;;;12.57;6.93;;;;;;;24.86;62.60;100401.00;125132;1102;104168;-78
2021/08/25 10:29:04;;;;;;;12.50;6.70;;;;;;;24.86;63.30;100406.37;125111;1102;104159;-76
2021/08/25 10:32:04;;;;;;;13.90;6.90;;;;;;;24.97;62.80;100408.79;125118;1102;104185;-75
2021/08/25 10:34:38;;;;;;;10.23;6.33;;;;;;;25.01;62.49;100402.44;125225;1102;104211;-77
2021/08/25 10:37:31;;;;;;;13.17;6.53;;;;;;;25.10;61.86;100398.61;125080;1102;104421;-79
2021/08/25 10:40:11;;;;;;;11.83;6.20;;;;;;;25.16;61.91;100395.77;125113;1102;104287;-78
2021/08/25 10:42:50;;;;;;;11.90;5.83;;;;;;;25.24;61.54;100391.09;125231;1102;104387;-77
2021/08/25 10:45:44;;;;;;;10.50;5.90;;;;;;;25.27;60.73;100396.39;125185;1102;104191;-79
2021/08/25 10:48:16;;;;;;;13.03;5.50;;;;;;;25.20;60.19;100399.27;125189;1099;104303;-78
2021/08/25 10:50:54;;;;;;;10.93;5.87;;;;;;;25.18;60.02;100396.63;126105;1099;104624;-78
2021/08/25 10:53:41;;;;;;;10.10;5.40;;;;;;;25.21;60.05;100385.81;125161;1099;104225;-78
2021/08/25 10:56:18;;;;;;;11.97;6.03;;;;;;;25.36;60.51;100389.90;126049;1099;104638;-77
2021/08/25 10:58:54;;;;;;;10.93;5.50;;;;;;;25.47;60.35;100387.79;125851;1099;104169;-77
2021/08/25 11:01:29;;;;;;;12.60;5.67;;;;;;;25.50;59.72;100377.91;125117;1099;104270;-77
2021/08/25 11:04:03;;;;;;;10.40;5.50;;;;;;;25.49;59.65;100379.69;125059;1099;104204;-78
2021/08/25 11:06:35;;;;;;;;;;;;;;;25.42;59.12;100372.74;125127;1102;104258;-77
2021/08/25 11:09:19;;;;;;;13.73;5.10;;;;;;;25.27;58.87;100380.27;125181;1099;104142;-77
2021/08/25 11:11:53;;;;;;;12.95;5.40;;;;;;;25.27;58.82;100379.37;125285;1102;110241;-76
2021/08/25 11:14:30;;;;;;;9.87;4.97;;;;;;;25.31;59.06;100381.09;125206;1102;104278;-75
2021/08/25 11:17:09;;;;;;;11.40;4.50;;;;;;;25.40;58.19;100370.10;125335;1102;104268;-75
2021/08/25 11:19:44;;;;;;;7.80;4.27;;;;;;;25.39;58.12;100375.52;125212;1099;104214;-75
2021/08/25 11:22:23;;;;;;;10.93;4.33;;;;;;;25.37;57.24;100370.19;125147;1099;104163;-75
2021/08/25 11:24:57;;;;;;;10.57;4.57;;;;;;;25.33;57.27;100373.00;125105;1102;104312;-77